Sultan, WA

5:49 PM PST on December 25, 2014 (GMT -0800)
SKY VIEW | Change Station
CLOSE
Current Station
Personal Weather Station
Location: Monroe, WA
Elevation: 556 ft
Nearby Weather Stations

Elev 556 ft 47.84 °N, 121.89 °W | Updated 4 seconds ago

Partly Cloudy
Partly Cloudy
39.8 °F
Feels Like 40 °F
N
0.9
Wind Variable Wind from SSE
Gusts 2.5 mph

Today
High -- | Low -- °F
--% Chance of Precip.
Yesterday
High -- | Low -- °F
Precip. -- in
7:55 AM 4:19 PM
Waxing Crescent, 21% visible
Pressure 30.25 in
Visibility 10.0 miles
Clouds Few 1300 ft
Mostly Cloudy 4800 ft
Mostly Cloudy 7000 ft
Windchill 40 °F
Dew Point Not available.
Humidity Not available.
Rainfall 0.00 in
Snow Depth Not available.
UV 0 out of 12
Pollen 1.00 out of 12
Air Quality Not available.
Flu Activity Not available.
METAR KPAE 260053Z 00000KT 10SM FEW013 BKN048 BKN070 06/03 A3023 RMK AO2 SLP242 T00560033

More Conditions Fewer Conditions

Pressure 30.25 in
Visibility 10.0 miles
Clouds Few 1300 ft
Mostly Cloudy 4800 ft
Mostly Cloudy 7000 ft
Windchill 40 °F
Dew Point Not available.
Humidity Not available.
Rainfall 0.00 in
Snow Depth Not available.
UV 0 out of 12
Pollen 1.00 out of 12
Air Quality Not available.
Flu Activity Not available.
METAR KPAE 260053Z 00000KT 10SM FEW013 BKN048 BKN070 06/03 A3023 RMK AO2 SLP242 T00560033

More Conditions Fewer Conditions

10-Day Weather Forecast

Almanac

Astronomy

Dec. 25, 2014 Rise Set
Actual Time
Civil Twilight
Nautical Twilight
Astronomical Twilight
Moon
Length of Visible Light
Length of Day
Tomorrow will be .
, % of the Moon is Illuminated

Today's Extremes

State Highs State Lows

Community

WunderPhotos

Upload Photos

1,780,495 photos uploaded!

WunderBlogs® & News

Nearby

Air Quality

  Air Quality AQ Index Pollutant
Not available.

Snow Depth

Station Depth Elevation

Earthquake Activity

City Distance Mag. Time & Date
Minimum magnitude displayed is 2.5.

Coastal Water Temperatures

Place Temperature

Nearby Weather Stations